Time;durP1;ratioP1;P1;durP2;ratioP2;P2;SDS_P1;SDS_P2;PMS_P1;PMS_P2;Temp;Humidity;BMP_temperature;BMP_pressure;BME280_temperature;BME280_humidity;BME280_pressure;Samples;Min_cycle;Max_cycle;Signal;HPM_P1;HPM_P2
2022/01/25 00:25:07;;;;;;;10.80;4.00;;;;;;;2.60;95.94;100979.29;104826;1274;73856;-73
2022/01/25 00:28:24;;;;;;;10.60;3.90;;;;;;;2.60;96.11;100968.79;104842;1273;67233;-73
2022/01/25 00:31:21;;;;;;;13.20;4.60;;;;;;;2.61;96.32;100960.00;105252;1274;71725;-73
2022/01/25 00:34:17;;;;;;;10.40;4.40;;;;;;;2.62;96.40;100958.90;104771;1274;59682;-72
2022/01/25 00:37:20;;;;;;;11.30;4.30;;;;;;;2.63;96.52;100957.98;105026;1274;59876;-73
2022/01/25 00:40:14;;;;;;;10.40;4.20;;;;;;;2.64;96.64;100956.39;105107;1273;73256;-72
2022/01/25 00:43:02;;;;;;;11.10;4.70;;;;;;;2.62;96.83;100955.73;104825;1273;67169;-69
2022/01/25 00:45:53;;;;;;;11.50;4.50;;;;;;;2.61;97.30;100959.27;104837;1273;71575;-70
2022/01/25 00:48:46;;;;;;;10.10;4.80;;;;;;;2.60;97.36;100951.77;104756;1273;59774;-69
2022/01/25 00:54:39;;;;;;;14.30;4.60;;;;;;;2.60;97.85;100958.62;105168;1273;73142;-69
2022/01/25 00:57:28;;;;;;;10.50;5.00;;;;;;;2.59;98.29;100962.00;105083;1273;66598;-69
2022/01/25 01:00:16;;;;;;;13.10;5.10;;;;;;;2.59;98.24;100963.02;104757;1274;71398;-70
2022/01/25 01:03:04;;;;;;;12.60;5.50;;;;;;;2.59;98.14;100953.73;104988;1273;59778;-70
2022/01/25 01:05:53;;;;;;;12.00;4.90;;;;;;;2.61;98.36;100956.84;104942;1273;60574;-69
2022/01/25 01:08:42;;;;;;;12.40;5.60;;;;;;;2.61;98.48;100948.23;104560;1274;72170;-71
2022/01/25 01:11:38;;;;;;;11.70;4.70;;;;;;;2.62;98.62;100948.39;104974;1274;68511;-70
2022/01/25 01:42:56;;;;;;;22.00;8.70;;;;;;;2.58;100.00;100955.37;104785;1273;67179;-70
2022/01/25 01:46:00;;;;;;;41.20;15.10;;;;;;;2.58;100.00;100950.97;104952;1273;71174;-70
2022/01/25 01:48:58;;;;;;;25.30;10.00;;;;;;;2.57;100.00;100943.45;104781;1273;59778;-70
2022/01/25 01:51:49;;;;;;;45.00;14.80;;;;;;;2.54;100.00;100936.34;104862;1273;59663;-71
2022/01/25 01:54:42;;;;;;;25.70;9.60;;;;;;;2.52;100.00;100944.14;105346;1273;72019;-71
2022/01/25 01:57:30;;;;;;;15.70;6.10;;;;;;;2.50;100.00;100939.82;104854;1274;68226;-70
2022/01/25 02:00:24;;;;;;;21.10;8.70;;;;;;;2.49;100.00;100931.43;104505;1273;73004;-70
2022/01/25 02:03:47;;;;;;;16.50;7.50;;;;;;;2.49;100.00;100923.56;105050;1273;59656;-70
2022/01/25 02:06:39;;;;;;;12.40;5.60;;;;;;;2.50;100.00;100917.75;104857;1273;60713;-70
2022/01/25 02:09:29;;;;;;;13.00;5.30;;;;;;;2.51;100.00;100913.85;104692;1274;73860;-70
2022/01/25 02:12:17;;;;;;;13.80;5.20;;;;;;;2.52;100.00;100910.66;104969;1273;67290;-71
2022/01/25 02:15:08;;;;;;;13.00;5.40;;;;;;;2.54;100.00;100919.01;104651;1274;73573;-70
2022/01/25 02:23:55;;;;;;;10.20;4.50;;;;;;;2.58;100.00;100917.85;105023;1274;73332;-71
2022/01/25 02:26:47;;;;;;;11.70;4.80;;;;;;;2.57;100.00;100911.92;104880;1274;66825;-70
2022/01/25 02:29:49;;;;;;;14.10;5.00;;;;;;;2.57;100.00;100916.64;105155;1274;71641;-72
2022/01/25 02:32:37;;;;;;;11.80;4.60;;;;;;;2.59;100.00;100910.30;104944;1273;59755;-73
2022/01/25 02:35:25;;;;;;;13.80;6.10;;;;;;;2.59;100.00;100910.64;104172;1273;1003095;-72
2022/01/25 02:38:27;;;;;;;13.10;5.10;;;;;;;2.59;100.00;100901.52;104784;1273;72130;-72
2022/01/25 02:41:23;;;;;;;11.10;4.60;;;;;;;2.57;100.00;100889.15;104659;1273;67877;-72
2022/01/25 02:44:28;;;;;;;11.10;4.70;;;;;;;2.55;100.00;100892.17;105110;1273;73177;-72
2022/01/25 02:50:28;;;;;;;12.70;5.10;;;;;;;2.56;100.00;100890.22;104864;1274;60559;-72
2022/01/25 02:53:22;;;;;;;13.40;5.30;;;;;;;2.58;100.00;100888.09;104753;1274;73545;-73
2022/01/25 02:56:18;;;;;;;12.30;5.10;;;;;;;2.59;100.00;100885.94;104829;1273;68758;-72
2022/01/25 02:59:07;;;;;;;13.60;5.20;;;;;;;2.60;100.00;100884.66;104923;1274;73123;-72
2022/01/25 03:02:01;;;;;;;10.90;4.30;;;;;;;2.60;100.00;100890.63;104865;1274;59807;-73
2022/01/25 03:04:49;;;;;;;11.70;4.90;;;;;;;2.61;100.00;100884.47;104689;1273;59619;-72
2022/01/25 03:07:39;;;;;;;11.30;5.20;;;;;;;2.61;100.00;100870.98;104750;1273;72139;-72
2022/01/25 03:10:43;;;;;;;10.70;4.00;;;;;;;2.61;100.00;100869.39;104748;1273;67902;-72
2022/01/25 03:13:36;;;;;;;10.70;4.30;;;;;;;2.62;100.00;100868.48;104804;1273;72994;-72
2022/01/25 03:16:43;;;;;;;15.30;5.20;;;;;;;2.61;100.00;100875.17;104587;1273;59641;-73
2022/01/25 03:22:55;;;;;;;12.80;4.60;;;;;;;2.64;100.00;100872.44;104963;1273;73400;-74
2022/01/25 03:25:42;;;;;;;11.90;4.20;;;;;;;2.64;100.00;100869.83;104284;1273;1003424;-74
2022/01/25 03:28:30;;;;;;;13.70;5.40;;;;;;;2.65;100.00;100865.93;104648;1274;72271;-74
2022/01/25 03:31:21;;;;;;;12.40;4.80;;;;;;;2.66;100.00;100865.20;104518;1272;59750;-73
2022/01/25 03:34:11;;;;;;;14.00;5.80;;;;;;;2.66;100.00;100862.23;104696;1273;59910;-73
2022/01/25 03:37:05;;;;;;;13.10;5.00;;;;;;;2.67;100.00;100852.20;104716;1273;71896;-74
2022/01/25 03:39:53;;;;;;;11.70;4.60;;;;;;;2.68;100.00;100853.25;105054;1274;66662;-74
2022/01/25 03:42:41;;;;;;;10.40;4.00;;;;;;;2.68;100.00;100851.10;104889;1273;73321;-74
2022/01/25 03:45:33;;;;;;;10.30;4.00;;;;;;;2.68;100.00;100852.17;104770;1273;59767;-73
2022/01/25 03:51:12;;;;;;;8.20;3.30;;;;;;;2.68;100.00;100856.19;104663;1274;73781;-75
2022/01/25 03:54:17;;;;;;;10.40;3.90;;;;;;;2.69;100.00;100849.50;104608;1274;68159;-73
2022/01/25 03:57:09;;;;;;;8.70;3.40;;;;;;;2.68;100.00;100849.02;105042;1274;70770;-73
2022/01/25 04:00:09;;;;;;;9.40;3.70;;;;;;;2.71;100.00;100852.25;104845;1276;59655;-74
2022/01/25 04:03:06;;;;;;;9.70;3.60;;;;;;;2.74;100.00;100849.52;104782;1273;59703;-73
2022/01/25 04:05:57;;;;;;;9.80;3.50;;;;;;;2.74;100.00;100839.70;104974;1273;73727;-73
2022/01/25 04:08:45;;;;;;;9.10;3.40;;;;;;;2.74;100.00;100835.69;104757;1273;68242;-72
2022/01/25 04:11:34;;;;;;;9.90;3.70;;;;;;;2.72;100.00;100835.89;105042;1274;73008;-73
2022/01/25 04:14:22;;;;;;;9.50;3.30;;;;;;;2.72;100.00;100834.84;105076;1273;59798;-73
2022/01/25 04:17:18;;;;;;;9.70;3.60;;;;;;;2.71;100.00;100829.46;105038;1274;60441;-72
2022/01/25 04:20:16;;;;;;;12.00;3.90;;;;;;;2.73;100.00;100825.55;104801;1273;72662;-72
2022/01/25 04:26:10;;;;;;;10.60;3.70;;;;;;;2.73;100.00;100830.43;104782;1273;71503;-73
2022/01/25 04:29:06;;;;;;;10.50;3.40;;;;;;;2.73;100.00;100826.26;104134;1273;1002926;-73
2022/01/25 04:32:05;;;;;;;10.50;3.90;;;;;;;2.73;100.00;100822.57;105112;1273;60063;-72
2022/01/25 04:35:12;;;;;;;9.60;3.60;;;;;;;2.75;100.00;100824.27;105029;1273;72128;-73
2022/01/25 04:56:40;;;;;;;9.20;3.30;;;;;;;2.75;100.00;100820.41;105434;1273;71566;-70
2022/01/25 05:05:56;;;;;;;8.20;3.00;;;;;;;2.78;100.00;100821.20;105238;1273;73745;-71
2022/01/25 05:08:50;;;;;;;9.80;3.40;;;;;;;2.76;100.00;100815.30;105501;1273;66768;-72
2022/01/25 05:11:45;;;;;;;9.00;2.80;;;;;;;2.77;100.00;100819.30;105460;1274;71759;-72
2022/01/25 05:14:36;;;;;;;10.10;3.70;;;;;;;2.77;100.00;100809.13;105319;1273;59685;-73
2022/01/25 05:17:33;;;;;;;7.70;3.00;;;;;;;2.76;100.00;100805.48;105054;1273;59564;-71
2022/01/25 05:23:27;;;;;;;7.90;2.70;;;;;;;2.75;100.00;100810.24;104204;1273;1002931;-71
2022/01/25 05:26:15;;;;;;;9.10;3.40;;;;;;;2.75;100.00;100810.43;104925;1273;72638;-70
2022/01/25 05:29:03;;;;;;;8.90;3.30;;;;;;;2.76;100.00;100811.45;105478;1273;60185;-72
2022/01/25 05:31:51;;;;;;;9.40;3.40;;;;;;;2.76;100.00;100804.98;105348;1273;59613;-71
2022/01/25 05:34:39;;;;;;;7.90;3.20;;;;;;;2.77;100.00;100805.44;105546;1273;73932;-71
2022/01/25 05:37:27;;;;;;;9.20;3.20;;;;;;;2.77;100.00;100802.45;105261;1273;67176;-73
2022/01/25 05:40:18;;;;;;;8.40;3.10;;;;;;;2.77;100.00;100798.23;105029;1273;71618;-71
2022/01/25 05:46:17;;;;;;;8.20;3.30;;;;;;;2.80;100.00;100796.05;105211;1273;59818;-71
2022/01/25 05:49:05;;;;;;;8.80;3.40;;;;;;;2.81;100.00;100784.97;105345;1273;73505;-71
2022/01/25 05:51:53;;;;;;;8.10;2.80;;;;;;;2.82;100.00;100778.64;105255;1274;66891;-70
2022/01/25 05:54:40;;;;;;;9.20;3.20;;;;;;;2.83;100.00;100774.57;104866;1273;71599;-71
2022/01/25 05:57:28;;;;;;;9.70;2.90;;;;;;;2.83;100.00;100776.48;104947;1273;59652;-72
2022/01/25 06:00:16;;;;;;;8.00;3.10;;;;;;;2.85;100.00;100784.48;104492;1273;1003018;-71
2022/01/25 06:03:05;;;;;;;8.70;3.20;;;;;;;2.85;100.00;100790.61;105556;1274;72433;-72
2022/01/25 06:05:53;;;;;;;9.00;3.20;;;;;;;2.85;100.00;100794.11;105156;1274;66787;-72
2022/01/25 06:08:41;;;;;;;9.00;3.70;;;;;;;2.86;100.00;100801.80;104943;1273;73089;-73
2022/01/25 06:11:29;;;;;;;9.50;3.50;;;;;;;2.88;100.00;100805.95;105010;1273;59708;-71
2022/01/25 06:14:17;;;;;;;10.00;3.70;;;;;;;2.88;100.00;100800.84;104908;1273;59642;-70
2022/01/25 06:17:05;;;;;;;10.40;3.10;;;;;;;2.90;100.00;100801.67;104690;1274;70993;-71
2022/01/25 06:19:53;;;;;;;8.30;2.90;;;;;;;2.91;100.00;100795.67;104445;1273;1003830;-69
2022/01/25 06:22:40;;;;;;;8.00;3.00;;;;;;;2.92;100.00;100800.19;104811;1275;71956;-70
2022/01/25 06:25:29;;;;;;;9.60;3.50;;;;;;;2.95;100.00;100800.11;105616;1271;59764;-73
2022/01/25 06:28:20;;;;;;;8.00;2.70;;;;;;;2.93;100.00;100798.24;105866;1272;59585;-72
2022/01/25 06:31:10;;;;;;;9.10;3.10;;;;;;;2.92;100.00;100794.77;105512;1273;72010;-73
2022/01/25 06:34:19;;;;;;;8.40;3.00;;;;;;;2.94;100.00;100793.13;105601;1273;65959;-75
2022/01/25 06:37:38;;;;;;;8.20;3.10;;;;;;;2.96;100.00;100797.96;105537;1274;72796;-75
2022/01/25 06:41:06;;;;;;;8.10;3.20;;;;;;;2.95;100.00;100790.64;105287;1274;59669;-75
2022/01/25 06:44:01;;;;;;;11.40;3.90;;;;;;;2.96;100.00;100786.20;105342;1274;60788;-74
2022/01/25 06:47:25;;;;;;;7.60;2.80;;;;;;;2.98;100.00;100783.17;105605;1273;71657;-75
2022/01/25 06:50:31;;;;;;;8.60;3.10;;;;;;;3.00;100.00;100776.09;104872;1273;68146;-75
2022/01/25 06:53:27;;;;;;;8.70;3.00;;;;;;;3.01;100.00;100775.52;105045;1273;73389;-74
2022/01/25 06:56:25;;;;;;;9.40;3.40;;;;;;;3.02;100.00;100770.23;105026;1274;59704;-75
2022/01/25 06:59:24;;;;;;;9.00;2.80;;;;;;;3.03;100.00;100765.64;105333;1273;61089;-74
2022/01/25 07:02:27;;;;;;;7.70;2.70;;;;;;;3.03;100.00;100758.27;105293;1274;72255;-74
2022/01/25 07:05:24;;;;;;;7.90;2.60;;;;;;;3.03;100.00;100757.39;105396;1274;68583;-73
2022/01/25 07:08:12;;;;;;;9.30;3.20;;;;;;;3.03;100.00;100754.60;105199;1273;71676;-71
2022/01/25 07:11:07;;;;;;;9.00;3.20;;;;;;;3.05;100.00;100760.66;105066;1274;59711;-72
2022/01/25 07:13:58;;;;;;;9.10;3.10;;;;;;;3.07;100.00;100770.58;104962;1274;59640;-73
2022/01/25 07:17:39;;;;;;;7.80;2.80;;;;;;;3.09;100.00;100778.92;105062;1274;72291;-73
2022/01/25 07:20:28;;;;;;;10.00;4.00;;;;;;;3.11;100.00;100779.23;104875;1274;401143;-73
2022/01/25 07:23:41;;;;;;;9.20;3.40;;;;;;;3.14;100.00;100775.95;105127;1274;72972;-72
2022/01/25 07:26:34;;;;;;;9.20;3.50;;;;;;;3.17;100.00;100771.81;105422;1273;59684;-71
2022/01/25 07:29:32;;;;;;;10.10;3.10;;;;;;;3.21;100.00;100765.72;105430;1273;60345;-72
2022/01/25 07:32:29;;;;;;;8.60;3.00;;;;;;;3.22;100.00;100764.59;105383;1274;72906;-70
2022/01/25 07:35:23;;;;;;;8.30;2.80;;;;;;;3.23;100.00;100764.23;105475;1273;68368;-70
2022/01/25 07:38:16;;;;;;;7.80;3.00;;;;;;;3.23;100.00;100756.16;104861;1273;72955;-70
2022/01/25 07:41:04;;;;;;;8.20;2.80;;;;;;;3.24;100.00;100754.36;104926;1273;59768;-70
2022/01/25 07:43:59;;;;;;;8.60;2.90;;;;;;;3.27;100.00;100758.49;105007;1273;60657;-72
2022/01/25 07:46:49;;;;;;;8.10;2.70;;;;;;;3.28;100.00;100758.61;105198;1274;73522;-72
2022/01/25 07:49:37;;;;;;;7.10;2.50;;;;;;;3.31;100.00;100765.34;105078;1274;68535;-72
2022/01/25 07:52:33;;;;;;;8.50;3.00;;;;;;;3.31;100.00;100768.33;105187;1273;71830;-72
2022/01/25 07:55:21;;;;;;;7.20;2.50;;;;;;;3.34;100.00;100767.17;105128;1274;59624;-73
2022/01/25 07:58:09;;;;;;;8.20;2.80;;;;;;;3.38;100.00;100772.63;105518;1272;60538;-72
2022/01/25 08:00:56;;;;;;;7.60;2.70;;;;;;;3.40;100.00;100775.36;105019;1273;70960;-72
2022/01/25 08:03:44;;;;;;;8.70;2.70;;;;;;;3.41;100.00;100779.34;104803;1273;68287;-72
2022/01/25 08:06:40;;;;;;;7.60;2.80;;;;;;;3.46;100.00;100781.48;104716;1276;73144;-71
2022/01/25 08:09:41;;;;;;;7.20;2.70;;;;;;;3.51;100.00;100787.27;105023;1277;59679;-73
2022/01/25 08:12:49;;;;;;;7.10;2.50;;;;;;;3.57;100.00;100788.95;105139;1276;59654;-73
2022/01/25 08:15:53;;;;;;;9.00;2.80;;;;;;;3.61;100.00;100783.89;104936;1276;73286;-74
2022/01/25 08:18:49;;;;;;;8.30;2.70;;;;;;;3.64;100.00;100788.70;104764;1277;68423;-71
2022/01/25 08:21:38;;;;;;;8.10;2.90;;;;;;;3.66;100.00;100792.83;104829;1276;73290;-72
2022/01/25 08:24:26;;;;;;;7.70;2.60;;;;;;;3.68;100.00;100793.98;104673;1277;59827;-72
2022/01/25 08:27:28;;;;;;;11.00;4.10;;;;;;;3.74;100.00;100792.53;105664;1276;60603;-73
2022/01/25 08:30:18;;;;;;;9.10;3.20;;;;;;;3.77;100.00;100793.30;104580;1276;72463;-73
2022/01/25 08:33:08;;;;;;;10.10;3.20;;;;;;;3.79;100.00;100791.30;105278;1276;68803;-73
2022/01/25 08:35:56;;;;;;;12.00;4.20;;;;;;;3.80;100.00;100786.01;105297;1276;73137;-73
2022/01/25 08:38:45;;;;;;;14.70;5.30;;;;;;;3.81;100.00;100781.94;105045;1277;60226;-74
2022/01/25 08:41:38;;;;;;;13.10;4.20;;;;;;;3.82;100.00;100780.12;104652;1276;60791;-74
2022/01/25 08:44:36;;;;;;;9.70;3.20;;;;;;;3.80;100.00;100770.20;104860;1274;72046;-71
2022/01/25 08:47:30;;;;;;;9.90;3.60;;;;;;;3.79;100.00;100768.11;104865;1273;68341;-73
2022/01/25 08:50:27;;;;;;;7.40;2.80;;;;;;;3.80;100.00;100771.06;104422;1274;1003642;-73
2022/01/25 08:53:18;;;;;;;8.20;3.00;;;;;;;3.78;100.00;100778.88;105282;1274;59669;-73
2022/01/25 08:56:15;;;;;;;7.70;3.00;;;;;;;3.78;100.00;100777.12;105231;1273;60434;-73
2022/01/25 08:59:02;;;;;;;7.70;2.50;;;;;;;3.77;100.00;100784.70;105137;1273;73531;-73
2022/01/25 09:01:50;;;;;;;8.90;3.00;;;;;;;3.78;100.00;100786.27;105151;1274;68032;-73
2022/01/25 09:04:38;;;;;;;9.60;3.50;;;;;;;3.80;100.00;100786.89;105031;1274;73655;-71
2022/01/25 09:07:26;;;;;;;9.80;3.70;;;;;;;3.83;100.00;100790.30;105090;1274;59961;-72
2022/01/25 09:10:24;;;;;;;10.20;2.90;;;;;;;3.85;100.00;100790.01;105211;1274;60138;-72
2022/01/25 09:13:12;;;;;;;8.10;3.20;;;;;;;3.86;100.00;100790.16;105244;1274;73256;-72
2022/01/25 09:16:01;;;;;;;7.70;3.10;;;;;;;3.88;100.00;100790.94;105073;1274;68225;-73
2022/01/25 09:18:49;;;;;;;10.00;3.20;;;;;;;3.91;100.00;100788.39;105335;1273;71009;-72
2022/01/25 09:21:37;;;;;;;9.30;3.40;;;;;;;3.92;100.00;100786.42;105458;1274;59891;-75
2022/01/25 09:24:28;;;;;;;10.60;3.70;;;;;;;3.94;100.00;100782.86;105211;1273;60485;-72
2022/01/25 09:27:15;;;;;;;9.50;3.10;;;;;;;3.95;100.00;100776.31;105122;1274;73447;-72
2022/01/25 09:30:05;;;;;;;8.70;3.80;;;;;;;3.96;100.00;100778.02;105394;1274;68724;-72
2022/01/25 09:32:52;;;;;;;9.90;3.70;;;;;;;3.96;100.00;100783.98;104835;1273;71789;-73
2022/01/25 09:35:41;;;;;;;8.80;3.00;;;;;;;3.94;100.00;100792.83;105080;1273;59773;-72
2022/01/25 09:39:26;;;;;;;10.90;4.40;;;;;;;3.95;100.00;100791.95;104920;1274;59676;-73
2022/01/25 09:42:29;;;;;;;9.60;3.30;;;;;;;3.98;100.00;100789.70;105042;1273;71985;-74
2022/01/25 09:45:22;;;;;;;9.90;4.40;;;;;;;4.01;100.00;100792.21;105041;1273;67981;-72
2022/01/25 09:48:15;;;;;;;9.20;3.40;;;;;;;4.03;100.00;100794.79;104902;1273;72817;-72
2022/01/25 09:51:06;;;;;;;9.90;3.80;;;;;;;4.03;100.00;100795.98;105366;1274;59774;-71
2022/01/25 09:53:54;;;;;;;9.80;3.40;;;;;;;4.06;100.00;100800.42;105267;1273;60831;-72
2022/01/25 09:56:42;;;;;;;8.80;3.40;;;;;;;4.11;100.00;100798.84;105080;1274;73409;-72
2022/01/25 09:59:30;;;;;;;9.70;3.70;;;;;;;4.16;100.00;100795.34;105298;1273;66375;-72
2022/01/25 10:02:55;;;;;;;9.70;3.60;;;;;;;4.23;100.00;100800.65;105504;1274;70837;-73
2022/01/25 10:05:47;;;;;;;9.80;2.80;;;;;;;4.47;99.95;100799.36;105452;1273;60874;-73
2022/01/25 10:08:38;;;;;;;8.60;3.30;;;;;;;4.67;99.73;100789.76;105402;1274;59980;-74
2022/01/25 10:11:26;;;;;;;10.00;3.30;;;;;;;4.93;98.99;100787.45;105245;1274;73451;-72
2022/01/25 10:14:14;;;;;;;11.70;3.40;;;;;;;5.03;97.74;100782.80;104994;1274;68033;-72
2022/01/25 10:17:02;;;;;;;9.60;3.60;;;;;;;5.12;97.45;100778.37;104816;1271;73030;-73
2022/01/25 10:19:54;;;;;;;9.40;3.20;;;;;;;5.24;97.19;100780.48;105038;1274;59596;-73
2022/01/25 10:22:47;;;;;;;9.00;3.10;;;;;;;5.72;96.65;100772.85;105753;1274;59527;-74
2022/01/25 10:25:45;;;;;;;8.60;3.10;;;;;;;5.80;93.61;100770.40;105658;1273;73313;-74
2022/01/25 10:28:32;;;;;;;10.80;3.10;;;;;;;5.63;92.20;100768.36;105244;1274;67310;-72
2022/01/25 10:31:20;;;;;;;7.30;2.60;;;;;;;5.50;93.07;100764.70;104632;1273;1003025;-74
2022/01/25 10:34:12;;;;;;;10.80;3.20;;;;;;;5.31;93.06;100757.65;105323;1272;59630;-71
2022/01/25 10:37:09;;;;;;;12.20;3.40;;;;;;;5.14;93.34;100757.52;105233;1273;60517;-74
2022/01/25 10:40:07;;;;;;;9.40;2.90;;;;;;;5.03;94.70;100758.33;105126;1273;73283;-74
2022/01/25 10:42:59;;;;;;;9.60;3.20;;;;;;;4.96;94.67;100761.27;105499;1273;67950;-74
2022/01/25 10:46:13;;;;;;;11.50;3.70;;;;;;;4.90;95.38;100753.80;104981;1273;72296;-73
2022/01/25 10:49:15;;;;;;;10.00;3.60;;;;;;;4.87;95.41;100757.30;104970;1273;59711;-74
2022/01/25 10:52:05;;;;;;;8.20;3.30;;;;;;;4.81;95.90;100758.77;104840;1275;59699;-75
2022/01/25 10:55:05;;;;;;;9.40;3.30;;;;;;;4.75;96.38;100756.19;105025;1273;73257;-73
2022/01/25 10:57:58;;;;;;;9.60;3.10;;;;;;;4.71;96.75;100753.20;104668;1273;66826;-72
2022/01/25 11:00:51;;;;;;;11.80;3.80;;;;;;;4.67;96.70;100748.11;105495;1274;71735;-73
2022/01/25 11:03:43;;;;;;;11.70;3.60;;;;;;;4.69;96.84;100743.96;104766;1274;59748;-72
2022/01/25 11:06:32;;;;;;;11.60;3.70;;;;;;;4.81;96.78;100744.70;105213;1274;59673;-73
2022/01/25 11:09:24;;;;;;;10.10;4.20;;;;;;;4.91;96.52;100743.36;105247;1274;71952;-73
2022/01/25 11:12:17;;;;;;;8.90;3.40;;;;;;;4.93;95.89;100743.45;105167;1274;66764;-74
2022/01/25 11:15:15;;;;;;;11.50;4.00;;;;;;;4.94;96.13;100747.67;105070;1273;71618;-73
2022/01/25 11:18:11;;;;;;;12.50;3.80;;;;;;;4.90;96.02;100747.10;105678;1273;59794;-72
2022/01/25 11:21:07;;;;;;;13.80;4.10;;;;;;;4.96;95.70;100751.09;105218;1273;59657;-72
2022/01/25 11:24:43;;;;;;;11.30;3.50;;;;;;;5.06;95.84;100747.12;105057;1273;72200;-74
2022/01/25 11:28:14;;;;;;;11.00;3.80;;;;;;;5.11;95.84;100745.68;105446;1274;67683;-73
2022/01/25 11:31:20;;;;;;;12.00;4.10;;;;;;;5.07;95.05;100745.32;105198;1273;71925;-73
2022/01/25 11:34:15;;;;;;;11.70;4.00;;;;;;;5.10;95.44;100746.96;104987;1273;59819;-72
2022/01/25 11:37:09;;;;;;;10.10;3.40;;;;;;;5.06;94.76;100743.98;105161;1274;59683;-72
2022/01/25 11:39:57;;;;;;;11.50;3.70;;;;;;;5.05;95.08;100745.95;104997;1274;72039;-74
2022/01/25 11:42:55;;;;;;;12.30;3.60;;;;;;;5.09;95.43;100749.80;105508;1274;67286;-74
2022/01/25 11:45:50;;;;;;;9.70;3.10;;;;;;;5.17;95.11;100738.05;105141;1274;71520;-73
2022/01/25 11:48:44;;;;;;;9.60;3.10;;;;;;;5.26;94.54;100733.95;105204;1274;59753;-74
2022/01/25 11:51:34;;;;;;;9.60;3.60;;;;;;;5.18;94.04;100728.15;104622;1273;1003091;-73
2022/01/25 11:54:22;;;;;;;12.20;3.50;;;;;;;5.09;94.09;100732.56;105722;1273;71632;-73
2022/01/25 11:57:25;;;;;;;11.00;3.50;;;;;;;5.02;94.79;100731.67;105171;1274;68000;-72
2022/01/25 12:00:14;;;;;;;11.40;3.40;;;;;;;4.97;94.76;100735.22;104995;1273;71768;-72
2022/01/25 12:03:44;;;;;;;11.00;3.50;;;;;;;4.96;95.15;100733.70;105469;1273;59856;-73
2022/01/25 12:06:44;;;;;;;10.70;3.50;;;;;;;4.94;94.34;100731.66;105426;1274;60368;-72
2022/01/25 12:09:50;;;;;;;9.10;3.20;;;;;;;4.91;94.98;100733.89;105034;1273;72025;-71
2022/01/25 12:13:10;;;;;;;9.30;2.80;;;;;;;4.87;95.01;100730.89;105455;1274;67066;-72
2022/01/25 12:16:26;;;;;;;12.60;3.00;;;;;;;4.86;95.19;100740.64;105164;1273;72785;-72
2022/01/25 12:19:32;;;;;;;9.70;3.80;;;;;;;4.89;95.20;100735.38;105236;1274;60016;-73
2022/01/25 12:25:37;;;;;;;10.40;2.70;;;;;;;4.95;93.87;100740.74;105331;1274;73160;-72
2022/01/25 12:28:33;;;;;;;11.00;2.60;;;;;;;5.02;93.87;100740.61;105272;1274;67171;-73
2022/01/25 12:31:20;;;;;;;11.30;3.10;;;;;;;5.04;93.27;100743.54;104951;1274;71611;-73
2022/01/25 12:35:12;;;;;;;12.70;2.90;;;;;;;5.05;93.67;100743.84;105155;1274;59676;-72
2022/01/25 12:38:06;;;;;;;10.80;3.20;;;;;;;5.03;93.61;100740.23;104722;1282;61115;-73
2022/01/25 12:41:07;;;;;;;8.70;2.90;;;;;;;5.03;93.27;100738.64;104081;1284;71908;-71
2022/01/25 12:43:59;;;;;;;10.30;2.90;;;;;;;5.07;93.26;100737.59;104118;1284;68738;-73
2022/01/25 12:46:48;;;;;;;9.20;2.60;;;;;;;5.05;93.46;100740.13;103292;1284;1003746;-73
2022/01/25 12:49:43;;;;;;;9.90;2.70;;;;;;;5.00;93.49;100740.54;104379;1284;59791;-73
2022/01/25 12:52:32;;;;;;;9.60;3.30;;;;;;;4.95;93.45;100742.71;104119;1282;59681;-72
2022/01/25 12:55:37;;;;;;;10.80;3.30;;;;;;;4.91;93.73;100737.60;104094;1284;74152;-73
2022/01/25 12:58:29;;;;;;;10.60;3.50;;;;;;;4.88;94.20;100733.14;104431;1282;66921;-74
2022/01/25 13:01:26;;;;;;;12.30;3.00;;;;;;;4.89;94.39;100739.80;104223;1284;72032;-75
2022/01/25 13:04:18;;;;;;;10.20;3.40;;;;;;;4.87;94.34;100739.86;104136;1282;59867;-72
2022/01/25 13:07:10;;;;;;;11.50;3.90;;;;;;;4.87;94.16;100732.47;104166;1282;60225;-72
2022/01/25 13:09:58;;;;;;;9.40;3.10;;;;;;;4.90;94.23;100735.68;104129;1282;72389;-73
2022/01/25 13:12:58;;;;;;;10.40;3.20;;;;;;;4.91;93.97;100732.31;104140;1284;66063;-74
2022/01/25 13:16:03;;;;;;;11.50;2.80;;;;;;;4.94;93.66;100737.81;104803;1273;71500;-73
2022/01/25 13:18:58;;;;;;;13.20;3.10;;;;;;;4.93;93.10;100742.75;105035;1274;59533;-71
2022/01/25 13:21:54;;;;;;;10.10;3.00;;;;;;;4.84;93.30;100745.42;105053;1274;59570;-73
2022/01/25 13:25:26;;;;;;;9.40;2.70;;;;;;;4.81;94.03;100745.59;105453;1273;71582;-72
2022/01/25 13:28:35;;;;;;;10.80;3.40;;;;;;;4.76;94.02;100746.84;105184;1274;66882;-73
2022/01/25 13:31:37;;;;;;;10.60;3.20;;;;;;;4.69;94.13;100748.55;104574;1274;1003401;-74
2022/01/25 13:34:25;;;;;;;9.40;3.60;;;;;;;4.64;94.51;100750.68;105296;1274;59606;-73
2022/01/25 13:37:22;;;;;;;13.00;3.80;;;;;;;4.59;94.40;100757.02;105555;1274;60792;-73
2022/01/25 13:40:13;;;;;;;10.10;3.30;;;;;;;4.56;94.69;100756.80;105356;1274;73284;-73
2022/01/25 13:46:16;;;;;;;9.50;2.80;;;;;;;4.54;94.87;100766.23;105113;1273;73018;-73
2022/01/25 13:49:15;;;;;;;13.70;3.00;;;;;;;4.49;94.97;100763.10;105002;1273;59854;-73
2022/01/25 13:52:06;;;;;;;13.20;5.50;;;;;;;4.44;95.38;100765.73;105644;1274;60460;-72
2022/01/25 13:55:11;;;;;;;10.00;3.50;;;;;;;4.43;96.19;100765.95;105293;1274;73862;-71
2022/01/25 13:58:02;;;;;;;13.80;3.60;;;;;;;4.46;95.97;100769.36;105625;1274;68827;-74
2022/01/25 14:00:59;;;;;;;12.20;3.60;;;;;;;4.43;95.53;100768.77;105512;1273;72054;-73
2022/01/25 14:03:59;;;;;;;11.00;3.70;;;;;;;4.36;95.57;100761.48;105297;1274;59712;-72
2022/01/25 14:07:00;;;;;;;10.60;3.00;;;;;;;4.31;95.43;100760.31;105208;1274;60498;-73
2022/01/25 14:09:50;;;;;;;9.70;3.00;;;;;;;4.22;95.78;100756.61;105331;1274;73405;-73
2022/01/25 14:25:06;;;;;;;8.90;2.80;;;;;;;3.98;96.71;100774.77;104717;1279;73508;-74
2022/01/25 14:27:58;;;;;;;11.30;3.00;;;;;;;3.93;96.84;100783.92;105108;1277;68193;-73
2022/01/25 14:30:54;;;;;;;13.40;2.90;;;;;;;3.90;96.80;100784.22;104936;1281;73494;-73
2022/01/25 14:34:17;;;;;;;9.80;3.20;;;;;;;3.91;97.01;100782.58;104743;1278;59988;-73
2022/01/25 14:38:14;;;;;;;;;;;;;;;;;;;;;
2022/01/25 14:42:38;;;;;;;12.20;3.40;;;;;;;3.88;97.38;100779.38;104775;1284;73828;-72
2022/01/25 14:46:09;;;;;;;11.50;4.00;;;;;;;3.87;97.59;100788.19;104616;1284;67225;-73
2022/01/25 14:49:48;;;;;;;10.50;2.90;;;;;;;3.84;97.27;100786.39;104611;1282;73255;-74
2022/01/25 14:52:38;;;;;;;12.10;3.10;;;;;;;3.77;97.07;100791.73;104464;1283;59884;-74
2022/01/25 14:55:43;;;;;;;9.40;3.30;;;;;;;3.70;97.24;100791.80;104494;1283;59944;-73
2022/01/25 15:01:39;;;;;;;10.00;3.80;;;;;;;3.60;97.71;100791.82;104823;1281;68194;-72
2022/01/25 15:04:31;;;;;;;11.90;3.10;;;;;;;3.56;97.43;100793.73;104350;1281;73463;-73
2022/01/25 15:07:38;;;;;;;10.50;3.10;;;;;;;3.53;97.31;100790.88;104285;1281;59707;-72
2022/01/25 15:10:31;;;;;;;16.40;4.50;;;;;;;3.46;97.47;100796.73;104548;1280;59699;-72
2022/01/25 15:13:39;;;;;;;9.70;2.60;;;;;;;3.40;97.51;100794.98;104386;1281;73400;-73
2022/01/25 15:16:37;;;;;;;10.20;2.90;;;;;;;3.30;97.71;100796.60;103186;1281;1016569;-73
2022/01/25 15:19:25;;;;;;;14.30;4.10;;;;;;;3.22;97.75;100791.27;105168;1274;71867;-73
2022/01/25 15:22:19;;;;;;;18.60;4.30;;;;;;;3.12;97.87;100790.73;105103;1274;59911;-73
2022/01/25 15:25:13;;;;;;;16.50;5.10;;;;;;;3.03;98.61;100791.59;104943;1274;59868;-70
2022/01/25 15:28:02;;;;;;;30.00;7.80;;;;;;;2.94;98.72;100791.90;104861;1274;73453;-70
2022/01/25 15:30:51;;;;;;;26.30;8.10;;;;;;;2.84;99.09;100791.73;105348;1274;68021;-73
2022/01/25 15:33:39;;;;;;;17.60;5.20;;;;;;;2.79;99.35;100794.16;104951;1274;70647;-70
2022/01/25 15:36:27;;;;;;;19.70;5.90;;;;;;;2.74;99.92;100795.57;104946;1274;60134;-69